Time;durP1;ratioP1;P1;durP2;ratioP2;P2;SDS_P1;SDS_P2;PMS_P1;PMS_P2;Temp;Humidity;BMP_temperature;BMP_pressure;BME280_temperature;BME280_humidity;BME280_pressure;Samples;Min_cycle;Max_cycle;Signal;HPM_P1;HPM_P2
2021/01/04 00:01:46;;;;;;;7.10;3.90;;;;;;;;;;5111824;28;20673;-82
2021/01/04 00:04:33;;;;;;;7.20;4.07;;;;;;;;;;5113507;28;20172;-83
2021/01/04 00:07:08;;;;;;;8.10;4.20;;;;;;;;;;5113456;28;20209;-83
2021/01/04 00:09:57;;;;;;;5.67;3.80;;;;;;;;;;5113462;28;20176;-84
2021/01/04 00:12:28;;;;;;;7.83;4.17;;;;;;;;;;5084495;28;20666;-83
2021/01/04 00:14:58;;;;;;;8.70;4.47;;;;;;;;;;5113784;28;20162;-82
2021/01/04 00:17:47;;;;;;;6.73;3.80;;;;;;;;;;5113464;28;20197;-83
2021/01/04 00:20:25;;;;;;;6.37;3.63;;;;;;;;;;5114521;28;20225;-83
2021/01/04 00:23:10;;;;;;;6.57;3.67;;;;;;;;;;5116994;28;20176;-83
2021/01/04 00:25:52;;;;;;;5.73;2.47;;;;;;;;;;5115739;28;20173;-83
2021/01/04 00:28:27;;;;;;;6.80;2.73;;;;;;;;;;5115813;28;20667;-83
2021/01/04 00:31:02;;;;;;;3.20;2.10;;;;;;;;;;5117137;27;20236;-83
2021/01/04 00:33:32;;;;;;;7.73;2.60;;;;;;;;;;5117123;28;20210;-83
2021/01/04 00:36:05;;;;;;;4.73;2.93;;;;;;;;;;5116879;28;20176;-83
2021/01/04 00:38:38;;;;;;;5.50;3.10;;;;;;;;;;5116653;28;20525;-83
2021/01/04 00:41:22;;;;;;;8.27;3.03;;;;;;;;;;5115183;28;20201;-82
2021/01/04 00:43:59;;;;;;;6.00;2.97;;;;;;;;;;5116620;28;20173;-82
2021/01/04 00:46:35;;;;;;;5.33;3.07;;;;;;;;;;5115408;28;20217;-84
2021/01/04 00:49:09;;;;;;;6.77;3.13;;;;;;;;;;5116439;28;20546;-83
2021/01/04 00:51:44;;;;;;;6.07;2.67;;;;;;;;;;5115047;28;20184;-84
2021/01/04 00:54:30;;;;;;;5.23;2.90;;;;;;;;;;5115063;28;20677;-83
2021/01/04 00:57:09;;;;;;;6.27;2.90;;;;;;;;;;5114942;28;20243;-83
2021/01/04 00:59:54;;;;;;;6.57;3.10;;;;;;;;;;5116134;28;20185;-84
2021/01/04 01:02:59;;;;;;;5.23;2.90;;;;;;;;;;5114784;28;20285;-83
2021/01/04 01:05:47;;;;;;;5.40;2.53;;;;;;;;;;5053496;28;20262;-82
2021/01/04 01:08:23;;;;;;;5.50;2.90;;;;;;;;;;5113667;28;20213;-83
2021/01/04 01:11:10;;;;;;;5.03;2.77;;;;;;;;;;5114622;28;20176;-83
2021/01/04 01:13:36;;;;;;;4.20;2.20;;;;;;;;;;5114741;28;20178;-83
2021/01/04 01:16:18;;;;;;;5.13;3.00;;;;;;;;;;5114753;28;20229;-83
2021/01/04 01:18:51;;;;;;;7.70;2.70;;;;;;;;;;5116846;28;20201;-83
2021/01/04 01:21:25;;;;;;;4.77;2.80;;;;;;;;;;5115811;28;20199;-83
2021/01/04 01:23:59;;;;;;;4.10;2.67;;;;;;;;;;5114704;28;20181;-83
2021/01/04 01:26:53;;;;;;;5.10;2.60;;;;;;;;;;5115788;28;20189;-84
2021/01/04 01:29:41;;;;;;;4.20;2.83;;;;;;;;;;5116316;28;20143;-83
2021/01/04 01:32:26;;;;;;;4.57;2.67;;;;;;;;;;5115827;28;20192;-83
2021/01/04 01:34:58;;;;;;;5.57;3.30;;;;;;;;;;5115604;28;20206;-84
2021/01/04 01:38:05;;;;;;;5.80;2.93;;;;;;;;;;5115665;28;20200;-83
2021/01/04 01:40:51;;;;;;;4.63;2.50;;;;;;;;;;5036144;28;20281;-83
2021/01/04 01:43:41;;;;;;;8.00;3.10;;;;;;;;;;5052679;28;20247;-83
2021/01/04 01:46:13;;;;;;;4.70;2.43;;;;;;;;;;5097634;28;20178;-83
2021/01/04 01:48:49;;;;;;;3.43;2.10;;;;;;;;;;5115685;28;20615;-83
2021/01/04 01:51:37;;;;;;;7.07;2.80;;;;;;;;;;5115469;28;20169;-84
2021/01/04 01:54:15;;;;;;;6.33;2.43;;;;;;;;;;5113829;28;20585;-84
2021/01/04 01:56:54;;;;;;;3.97;2.23;;;;;;;;;;5114247;28;20198;-83
2021/01/04 01:59:40;;;;;;;4.00;2.10;;;;;;;;;;5113714;28;20221;-83
2021/01/04 02:02:48;;;;;;;5.13;2.60;;;;;;;;;;5113967;28;20227;-83
2021/01/04 02:05:21;;;;;;;2.87;2.10;;;;;;;;;;5036087;28;20225;-83
2021/01/04 02:08:07;;;;;;;4.10;2.40;;;;;;;;;;5035517;28;20252;-83
2021/01/04 02:10:41;;;;;;;2.70;2.30;;;;;;;;;;5094984;27;20182;-83
2021/01/04 02:13:23;;;;;;;5.47;2.67;;;;;;;;;;5114802;28;20173;-84
2021/01/04 02:15:59;;;;;;;2.37;2.03;;;;;;;;;;5115392;28;20565;-83
2021/01/04 02:18:32;;;;;;;3.50;2.00;;;;;;;;;;5113608;28;20169;-83
2021/01/04 02:21:05;;;;;;;3.30;2.23;;;;;;;;;;5114941;28;20195;-83
2021/01/04 02:23:41;;;;;;;4.53;2.10;;;;;;;;;;5114851;28;20172;-83
2021/01/04 02:26:15;;;;;;;2.57;2.17;;;;;;;;;;5114651;28;20168;-83
2021/01/04 02:28:48;;;;;;;1.77;1.50;;;;;;;;;;5114907;28;20156;-83
2021/01/04 02:31:17;;;;;;;4.33;2.03;;;;;;;;;;5113531;28;20164;-83
2021/01/04 02:33:51;;;;;;;4.43;2.43;;;;;;;;;;5114860;27;20177;-83
2021/01/04 02:36:20;;;;;;;2.30;2.10;;;;;;;;;;5114464;28;20238;-83
2021/01/04 02:38:56;;;;;;;2.03;1.80;;;;;;;;;;5114286;28;20656;-83
2021/01/04 02:41:36;;;;;;;3.90;1.97;;;;;;;;;;5112853;28;20192;-83
2021/01/04 02:44:02;;;;;;;3.03;1.50;;;;;;;;;;5114605;28;20174;-83
2021/01/04 02:46:29;;;;;;;1.73;1.50;;;;;;;;;;5113035;28;20209;-83
2021/01/04 02:48:59;;;;;;;1.80;1.70;;;;;;;;;;5113079;28;20541;-83
2021/01/04 02:51:35;;;;;;;1.13;1.13;;;;;;;;;;5114449;28;20322;-83
2021/01/04 02:54:21;;;;;;;1.37;1.30;;;;;;;;;;5114851;28;20277;-83
2021/01/04 02:57:08;;;;;;;1.67;1.30;;;;;;;;;;5112956;28;20245;-83
2021/01/04 02:59:47;;;;;;;1.70;1.50;;;;;;;;;;5114030;28;20196;-83
2021/01/04 03:02:28;;;;;;;1.50;1.30;;;;;;;;;;5114233;28;20177;-83
2021/01/04 03:05:00;;;;;;;1.63;1.53;;;;;;;;;;5114238;28;20640;-83
2021/01/04 03:07:35;;;;;;;2.47;1.53;;;;;;;;;;5113981;28;20661;-83
2021/01/04 03:10:14;;;;;;;1.93;1.37;;;;;;;;;;5112574;28;20185;-83
2021/01/04 03:12:54;;;;;;;1.60;1.50;;;;;;;;;;5112599;28;20173;-83
2021/01/04 03:15:47;;;;;;;2.57;1.70;;;;;;;;;;5112399;28;20190;-83
2021/01/04 03:18:20;;;;;;;3.07;1.70;;;;;;;;;;5113949;28;20204;-83
2021/01/04 03:20:54;;;;;;;1.93;1.63;;;;;;;;;;5113625;28;20191;-83
2021/01/04 03:23:21;;;;;;;1.83;1.73;;;;;;;;;;5112500;28;20176;-83
2021/01/04 03:25:56;;;;;;;1.37;1.27;;;;;;;;;;5112444;28;20176;-83
2021/01/04 03:28:31;;;;;;;2.07;1.30;;;;;;;;;;5113755;28;20183;-83
2021/01/04 03:31:05;;;;;;;1.53;1.43;;;;;;;;;;5113589;28;20206;-83
2021/01/04 03:33:38;;;;;;;1.00;1.00;;;;;;;;;;5113987;28;20244;-83
2021/01/04 03:36:15;;;;;;;1.30;1.30;;;;;;;;;;5112311;28;20171;-83
2021/01/04 03:38:46;;;;;;;2.10;1.50;;;;;;;;;;5113657;28;20172;-83
2021/01/04 03:41:16;;;;;;;1.50;1.40;;;;;;;;;;5113478;28;20201;-82
2021/01/04 03:43:47;;;;;;;1.37;1.30;;;;;;;;;;5113609;28;20170;-83
2021/01/04 03:46:17;;;;;;;3.50;1.60;;;;;;;;;;5112855;28;20577;-83
2021/01/04 03:48:43;;;;;;;2.10;1.90;;;;;;;;;;5113716;28;20176;-83
2021/01/04 03:51:15;;;;;;;1.23;1.20;;;;;;;;;;5113472;28;20183;-83
2021/01/04 03:53:48;;;;;;;1.43;1.33;;;;;;;;;;5113872;28;20196;-83
2021/01/04 03:56:21;;;;;;;1.57;1.47;;;;;;;;;;5117638;28;20162;-83
2021/01/04 03:58:48;;;;;;;1.83;1.50;;;;;;;;;;5116113;28;20679;-83
2021/01/04 04:01:21;;;;;;;1.53;1.43;;;;;;;;;;5116020;28;20215;-83
2021/01/04 04:03:50;;;;;;;2.83;1.90;;;;;;;;;;5115982;28;20184;-83
2021/01/04 04:06:19;;;;;;;3.00;1.87;;;;;;;;;;5117086;28;20194;-83
2021/01/04 04:08:51;;;;;;;2.53;2.10;;;;;;;;;;5115860;28;20185;-83
2021/01/04 04:11:25;;;;;;;2.10;1.63;;;;;;;;;;5115841;28;20203;-83
2021/01/04 04:13:55;;;;;;;4.10;2.13;;;;;;;;;;5117073;28;20581;-83
2021/01/04 04:16:25;;;;;;;2.10;1.33;;;;;;;;;;5116954;28;20198;-83
2021/01/04 04:19:00;;;;;;;1.97;1.40;;;;;;;;;;5116869;28;20257;-83
2021/01/04 04:21:31;;;;;;;1.80;1.70;;;;;;;;;;5117039;28;20653;-83
2021/01/04 04:24:05;;;;;;;2.10;1.80;;;;;;;;;;5115680;28;20234;-83
2021/01/04 04:26:34;;;;;;;2.77;2.20;;;;;;;;;;5116270;28;20197;-83
2021/01/04 04:29:06;;;;;;;1.77;1.40;;;;;;;;;;5115621;28;20171;-83
2021/01/04 04:31:44;;;;;;;1.80;1.70;;;;;;;;;;5117045;28;20222;-83
2021/01/04 04:34:15;;;;;;;1.57;1.47;;;;;;;;;;5116225;28;20168;-83
2021/01/04 04:36:48;;;;;;;1.90;1.80;;;;;;;;;;5116474;28;20198;-83
2021/01/04 04:39:21;;;;;;;2.40;2.10;;;;;;;;;;5115299;28;20177;-83
2021/01/04 04:42:00;;;;;;;2.23;2.07;;;;;;;;;;5116680;28;20580;-83
2021/01/04 04:44:42;;;;;;;2.00;1.90;;;;;;;;;;5115181;28;20648;-83
2021/01/04 04:47:14;;;;;;;2.13;1.93;;;;;;;;;;5116230;28;20203;-83
2021/01/04 04:49:48;;;;;;;1.77;1.67;;;;;;;;;;5116761;28;20165;-83
2021/01/04 04:52:30;;;;;;;1.93;1.83;;;;;;;;;;5116245;28;20179;-83
2021/01/04 04:55:10;;;;;;;1.93;1.83;;;;;;;;;;5116594;28;20181;-83
2021/01/04 04:57:41;;;;;;;4.80;2.53;;;;;;;;;;5115982;28;20204;-83
2021/01/04 05:00:21;;;;;;;2.60;2.40;;;;;;;;;;5114797;28;20300;-83
2021/01/04 05:03:04;;;;;;;3.53;2.67;;;;;;;;;;5116435;28;20175;-83
2021/01/04 05:05:55;;;;;;;2.33;2.13;;;;;;;;;;5115797;28;20514;-83
2021/01/04 05:08:39;;;;;;;2.10;1.90;;;;;;;;;;5106102;28;20682;-83
2021/01/04 05:11:16;;;;;;;1.83;1.73;;;;;;;;;;5116223;27;20195;-83
2021/01/04 05:13:51;;;;;;;2.60;1.97;;;;;;;;;;5115928;28;20633;-83
2021/01/04 05:16:45;;;;;;;3.20;2.20;;;;;;;;;;5115969;28;20277;-83
2021/01/04 05:19:34;;;;;;;2.37;1.83;;;;;;;;;;5108257;28;20194;-83
2021/01/04 05:22:21;;;;;;;1.90;1.80;;;;;;;;;;5115918;28;20174;-83
2021/01/04 05:24:55;;;;;;;2.60;1.80;;;;;;;;;;5114987;28;20180;-83
2021/01/04 05:27:32;;;;;;;2.23;2.10;;;;;;;;;;5115820;28;20192;-83
2021/01/04 05:30:19;;;;;;;1.77;1.67;;;;;;;;;;5115909;28;20510;-83
2021/01/04 05:32:54;;;;;;;1.90;1.80;;;;;;;;;;5115800;28;20537;-83
2021/01/04 05:35:26;;;;;;;1.97;1.87;;;;;;;;;;5115795;28;20164;-83
2021/01/04 05:38:04;;;;;;;5.00;2.00;;;;;;;;;;5115350;28;20609;-83
2021/01/04 05:40:55;;;;;;;3.10;2.20;;;;;;;;;;5115554;27;20275;-83
2021/01/04 05:43:30;;;;;;;2.00;1.90;;;;;;;;;;5114356;28;20170;-83
2021/01/04 05:46:11;;;;;;;2.13;1.90;;;;;;;;;;5114023;28;20562;-83
2021/01/04 05:49:08;;;;;;;2.00;1.90;;;;;;;;;;5115508;28;20195;-83
2021/01/04 05:51:43;;;;;;;2.63;2.00;;;;;;;;;;5044744;28;20190;-83
2021/01/04 05:54:14;;;;;;;2.17;2.07;;;;;;;;;;5113777;28;20173;-83
2021/01/04 05:56:49;;;;;;;2.20;2.10;;;;;;;;;;5113690;28;20227;-83
2021/01/04 05:59:19;;;;;;;3.70;2.10;;;;;;;;;;5114983;28;20160;-83
2021/01/04 06:02:01;;;;;;;3.97;1.93;;;;;;;;;;5115190;28;20525;-83
2021/01/04 06:04:31;;;;;;;2.33;2.20;;;;;;;;;;5113629;28;20557;-83
2021/01/04 06:07:04;;;;;;;2.70;1.87;;;;;;;;;;5114612;28;20238;-83
2021/01/04 06:09:38;;;;;;;2.23;2.03;;;;;;;;;;5114792;28;20173;-83
2021/01/04 06:12:10;;;;;;;6.90;2.30;;;;;;;;;;5115061;28;20214;-83
2021/01/04 06:14:45;;;;;;;4.60;2.20;;;;;;;;;;5114999;28;20248;-83
2021/01/04 06:17:35;;;;;;;2.90;2.10;;;;;;;;;;5112538;28;20247;-83
2021/01/04 06:20:23;;;;;;;3.43;1.90;;;;;;;;;;5113326;28;20285;-83
2021/01/04 06:22:53;;;;;;;2.37;2.20;;;;;;;;;;5114932;28;20311;-83
2021/01/04 06:25:34;;;;;;;2.10;2.00;;;;;;;;;;5114612;28;20587;-83
2021/01/04 06:28:05;;;;;;;2.40;1.80;;;;;;;;;;5114325;28;20673;-83
2021/01/04 06:30:39;;;;;;;2.53;2.20;;;;;;;;;;5113140;28;20610;-83
2021/01/04 06:33:19;;;;;;;2.07;1.87;;;;;;;;;;5113052;28;20182;-83
2021/01/04 06:35:51;;;;;;;2.20;2.00;;;;;;;;;;5113040;28;20549;-83
2021/01/04 06:38:30;;;;;;;3.03;2.00;;;;;;;;;;5114358;28;20569;-83
2021/01/04 06:41:11;;;;;;;3.23;2.10;;;;;;;;;;5114193;28;20214;-83
2021/01/04 06:43:45;;;;;;;1.87;1.77;;;;;;;;;;5113090;28;20196;-83
2021/01/04 06:46:28;;;;;;;1.80;1.70;;;;;;;;;;5112768;28;20204;-83
2021/01/04 06:49:11;;;;;;;1.90;1.80;;;;;;;;;;5114075;28;20178;-83
2021/01/04 06:52:08;;;;;;;1.83;1.73;;;;;;;;;;5112679;28;20176;-83
2021/01/04 06:54:40;;;;;;;2.27;1.90;;;;;;;;;;5112849;28;20211;-83
2021/01/04 06:57:21;;;;;;;3.43;2.03;;;;;;;;;;5114018;28;20269;-83
2021/01/04 06:59:58;;;;;;;2.60;2.03;;;;;;;;;;5112670;28;20199;-83
2021/01/04 07:02:44;;;;;;;2.10;1.90;;;;;;;;;;5113949;28;20170;-83
2021/01/04 07:05:29;;;;;;;2.70;1.90;;;;;;;;;;5112607;28;20175;-83
2021/01/04 07:08:04;;;;;;;1.97;1.80;;;;;;;;;;5113745;28;20635;-82
2021/01/04 07:10:45;;;;;;;3.97;1.80;;;;;;;;;;5112465;28;20176;-83
2021/01/04 07:13:31;;;;;;;2.37;1.67;;;;;;;;;;5112534;28;20180;-83
2021/01/04 07:16:18;;;;;;;3.40;1.80;;;;;;;;;;5112371;28;20188;-83
2021/01/04 07:18:58;;;;;;;3.93;1.80;;;;;;;;;;5112448;28;20181;-83
2021/01/04 07:21:39;;;;;;;2.37;1.60;;;;;;;;;;5113622;28;20682;-83
2021/01/04 07:24:21;;;;;;;3.53;2.37;;;;;;;;;;5114090;28;20578;-83
2021/01/04 07:27:03;;;;;;;2.83;1.63;;;;;;;;;;5113757;28;20186;-83
2021/01/04 07:29:37;;;;;;;2.23;1.73;;;;;;;;;;5115812;28;20280;-83
2021/01/04 07:32:18;;;;;;;1.73;1.63;;;;;;;;;;5117950;28;20180;-83
2021/01/04 07:34:51;;;;;;;5.00;2.10;;;;;;;;;;5118172;28;20249;-83
2021/01/04 07:37:27;;;;;;;2.60;2.10;;;;;;;;;;5116672;28;20568;-83
2021/01/04 07:40:05;;;;;;;4.80;1.90;;;;;;;;;;5116508;28;20221;-83
2021/01/04 07:42:55;;;;;;;2.00;1.80;;;;;;;;;;5117883;28;20187;-83
2021/01/04 07:45:42;;;;;;;2.07;1.53;;;;;;;;;;5116336;28;20177;-83
2021/01/04 07:48:13;;;;;;;2.30;2.10;;;;;;;;;;5117730;28;20656;-83
2021/01/04 07:50:52;;;;;;;2.07;1.87;;;;;;;;;;5117559;28;20173;-83
2021/01/04 07:53:41;;;;;;;4.13;2.73;;;;;;;;;;5117469;28;20175;-83
2021/01/04 07:56:18;;;;;;;2.43;2.23;;;;;;;;;;5117211;28;20217;-83
2021/01/04 07:58:55;;;;;;;1.97;1.80;;;;;;;;;;5117358;28;20552;-83
2021/01/04 08:01:35;;;;;;;2.90;1.87;;;;;;;;;;5115961;28;20204;-82
2021/01/04 08:04:16;;;;;;;3.47;2.23;;;;;;;;;;5116149;28;20182;-83
2021/01/04 08:06:55;;;;;;;2.10;2.00;;;;;;;;;;5117275;28;20213;-83
2021/01/04 08:09:41;;;;;;;2.33;1.90;;;;;;;;;;5117406;28;20167;-83
2021/01/04 08:12:29;;;;;;;3.47;2.23;;;;;;;;;;5115821;28;20691;-83
2021/01/04 08:15:16;;;;;;;2.00;1.90;;;;;;;;;;5117076;28;20223;-83
2021/01/04 08:17:47;;;;;;;5.47;2.53;;;;;;;;;;5117212;27;20189;-83
2021/01/04 08:20:15;;;;;;;2.50;2.30;;;;;;;;;;5117032;28;20230;-83
2021/01/04 08:22:50;;;;;;;5.30;2.30;;;;;;;;;;5117123;28;20550;-83
2021/01/04 08:25:37;;;;;;;3.23;2.80;;;;;;;;;;5116915;28;20166;-83
2021/01/04 08:28:25;;;;;;;4.53;2.43;;;;;;;;;;5116703;28;20613;-83
2021/01/04 08:31:06;;;;;;;3.57;2.70;;;;;;;;;;5116786;28;20186;-83
2021/01/04 08:33:45;;;;;;;2.70;2.50;;;;;;;;;;5116387;28;20266;-83
2021/01/04 08:36:49;;;;;;;3.33;2.60;;;;;;;;;;5115498;28;20212;-83
2021/01/04 08:39:25;;;;;;;3.17;2.40;;;;;;;;;;5072808;28;20199;-83
2021/01/04 08:42:16;;;;;;;4.07;2.70;;;;;;;;;;5116351;28;20636;-83
2021/01/04 08:44:55;;;;;;;3.00;2.50;;;;;;;;;;5117122;28;20533;-83
2021/01/04 08:47:30;;;;;;;3.00;2.43;;;;;;;;;;5115107;28;20197;-83
2021/01/04 08:50:05;;;;;;;4.60;2.80;;;;;;;;;;5115057;28;20181;-83
2021/01/04 08:52:41;;;;;;;3.80;2.63;;;;;;;;;;5116311;28;20179;-83
2021/01/04 08:55:13;;;;;;;3.47;2.70;;;;;;;;;;5115211;28;20654;-83
2021/01/04 08:57:50;;;;;;;3.70;2.90;;;;;;;;;;5114874;28;20292;-83
2021/01/04 09:00:16;;;;;;;5.90;3.03;;;;;;;;;;5114868;28;20677;-83
2021/01/04 09:02:48;;;;;;;3.43;3.10;;;;;;;;;;5116090;28;20170;-82
2021/01/04 09:05:40;;;;;;;5.63;2.97;;;;;;;;;;5116549;28;20171;-83
2021/01/04 09:08:15;;;;;;;8.03;3.03;;;;;;;;;;5199510;22;20225;-84
2021/01/04 09:10:51;;;;;;;3.20;2.47;;;;;;;;;;5117911;28;20161;-82
2021/01/04 09:13:26;;;;;;;4.43;2.53;;;;;;;;;;5115618;28;20230;-82
2021/01/04 09:15:58;;;;;;;3.47;2.60;;;;;;;;;;5117060;28;20173;-82
2021/01/04 09:18:35;;;;;;;3.37;2.63;;;;;;;;;;5100068;28;20272;-82
2021/01/04 09:21:06;;;;;;;4.27;2.70;;;;;;;;;;5096217;28;20575;-82
2021/01/04 09:23:46;;;;;;;3.20;2.87;;;;;;;;;;5095190;28;20220;-82
2021/01/04 09:26:32;;;;;;;2.97;2.47;;;;;;;;;;5096544;28;20251;-82
2021/01/04 09:29:08;;;;;;;4.37;2.70;;;;;;;;;;5094736;28;20179;-81
2021/01/04 09:31:47;;;;;;;3.50;2.90;;;;;;;;;;5095028;28;20266;-82
2021/01/04 09:34:21;;;;;;;5.73;2.60;;;;;;;;;;5095015;28;20643;-82
2021/01/04 09:36:57;;;;;;;3.03;2.83;;;;;;;;;;5096663;28;20645;-82
2021/01/04 09:39:29;;;;;;;4.23;3.20;;;;;;;;;;5096296;28;20170;-82
2021/01/04 09:42:06;;;;;;;3.07;2.77;;;;;;;;;;5096375;28;20165;-82
2021/01/04 09:44:37;;;;;;;5.00;2.87;;;;;;;;;;5094913;28;20656;-82
2021/01/04 09:47:18;;;;;;;3.17;2.87;;;;;;;;;;5096505;28;20192;-82
2021/01/04 09:49:51;;;;;;;3.33;3.03;;;;;;;;;;5096385;28;20167;-82
2021/01/04 09:52:27;;;;;;;4.87;3.80;;;;;;;;;;5095817;28;20177;-81
2021/01/04 09:54:59;;;;;;;3.77;3.43;;;;;;;;;;5094796;28;20180;-82
2021/01/04 09:57:26;;;;;;;5.17;3.07;;;;;;;;;;5095831;28;20201;-82
2021/01/04 09:59:57;;;;;;;2.63;2.43;;;;;;;;;;5094477;28;20204;-82
2021/01/04 10:02:32;;;;;;;3.43;2.37;;;;;;;;;;5095080;28;20250;-81
2021/01/04 10:05:12;;;;;;;4.60;3.03;;;;;;;;;;5094003;28;20542;-82
2021/01/04 10:07:45;;;;;;;3.30;2.60;;;;;;;;;;5094925;28;20209;-81
2021/01/04 10:10:21;;;;;;;2.47;2.27;;;;;;;;;;5093348;28;20177;-82
2021/01/04 10:12:55;;;;;;;2.57;2.37;;;;;;;;;;5094542;28;20174;-83
2021/01/04 10:15:29;;;;;;;5.87;5.53;;;;;;;;;;5093226;28;20172;-82
2021/01/04 10:18:21;;;;;;;5.50;5.20;;;;;;;;;;5094577;28;20190;-82
2021/01/04 10:20:54;;;;;;;6.03;5.57;;;;;;;;;;5094543;28;20194;-83
2021/01/04 10:23:35;;;;;;;6.90;6.47;;;;;;;;;;5092978;28;20649;-83
2021/01/04 10:26:02;;;;;;;8.10;7.30;;;;;;;;;;5092902;28;20215;-83
2021/01/04 10:28:39;;;;;;;7.80;7.10;;;;;;;;;;5094109;28;20197;-83
2021/01/04 10:31:21;;;;;;;7.40;6.90;;;;;;;;;;5094087;28;20178;-83
2021/01/04 10:34:07;;;;;;;7.23;6.73;;;;;;;;;;5095386;28;20636;-82
2021/01/04 10:36:39;;;;;;;7.17;6.60;;;;;;;;;;5094332;28;20171;-83
2021/01/04 10:39:19;;;;;;;6.43;5.87;;;;;;;;;;5094387;28;20246;-83
2021/01/04 10:41:51;;;;;;;7.80;7.30;;;;;;;;;;5092709;28;20193;-83
2021/01/04 10:44:29;;;;;;;7.90;7.10;;;;;;;;;;5092640;28;20181;-82
2021/01/04 10:46:56;;;;;;;6.83;6.43;;;;;;;;;;5092527;28;20238;-82
2021/01/04 10:49:32;;;;;;;6.63;6.23;;;;;;;;;;5092728;28;20181;-82
2021/01/04 10:52:05;;;;;;;7.33;6.60;;;;;;;;;;5094046;28;20646;-82
2021/01/04 10:54:41;;;;;;;6.73;6.23;;;;;;;;;;5093951;28;20185;-82
2021/01/04 10:57:18;;;;;;;6.67;6.07;;;;;;;;;;5093967;28;20191;-82
2021/01/04 10:59:49;;;;;;;5.57;5.17;;;;;;;;;;5093713;28;20215;-83
2021/01/04 11:02:19;;;;;;;5.63;5.33;;;;;;;;;;5093945;28;20195;-83
2021/01/04 11:04:58;;;;;;;6.27;5.77;;;;;;;;;;5092318;28;20200;-83
2021/01/04 11:07:36;;;;;;;6.17;5.70;;;;;;;;;;5093603;28;20586;-82
2021/01/04 11:10:11;;;;;;;5.93;5.53;;;;;;;;;;5094105;28;20179;-82
2021/01/04 11:12:57;;;;;;;5.83;5.43;;;;;;;;;;5092868;28;20753;-82
2021/01/04 11:15:26;;;;;;;7.03;6.43;;;;;;;;;;5092603;28;20175;-83
2021/01/04 11:18:05;;;;;;;6.13;5.80;;;;;;;;;;5094114;28;20207;-82
2021/01/04 11:20:31;;;;;;;6.00;5.60;;;;;;;;;;5094145;28;20204;-82
2021/01/04 11:23:07;;;;;;;6.33;5.87;;;;;;;;;;5092747;28;20176;-82
2021/01/04 11:25:35;;;;;;;5.77;5.33;;;;;;;;;;5094822;28;20230;-83
2021/01/04 11:28:04;;;;;;;5.83;5.43;;;;;;;;;;5093792;28;20205;-82
2021/01/04 11:30:31;;;;;;;5.57;5.27;;;;;;;;;;5093695;28;20662;-83
2021/01/04 11:33:03;;;;;;;6.00;5.60;;;;;;;;;;5092451;28;20268;-82
2021/01/04 11:35:30;;;;;;;7.17;6.70;;;;;;;;;;5094128;28;20190;-82
2021/01/04 11:38:05;;;;;;;6.73;6.27;;;;;;;;;;5093691;28;20282;-82
2021/01/04 11:40:36;;;;;;;7.47;6.97;;;;;;;;;;5091945;28;20202;-82
2021/01/04 11:43:06;;;;;;;8.03;7.53;;;;;;;;;;5093429;28;20215;-83
2021/01/04 11:45:36;;;;;;;8.00;7.40;;;;;;;;;;5092052;28;20179;-83
2021/01/04 11:48:07;;;;;;;7.33;6.73;;;;;;;;;;5093146;28;20197;-82
2021/01/04 11:50:39;;;;;;;7.93;7.33;;;;;;;;;;5093272;28;20181;-82
2021/01/04 11:53:17;;;;;;;6.53;6.13;;;;;;;;;;5092094;28;20650;-82
2021/01/04 11:55:49;;;;;;;6.07;5.60;;;;;;;;;;5093464;28;20184;-82
2021/01/04 11:58:21;;;;;;;5.60;5.17;;;;;;;;;;5092330;28;20207;-82
2021/01/04 12:00:47;;;;;;;5.80;5.40;;;;;;;;;;5093432;28;20550;-83
2021/01/04 12:03:19;;;;;;;7.00;5.20;;;;;;;;;;5093250;28;20180;-83
2021/01/04 12:05:55;;;;;;;5.60;5.10;;;;;;;;;;5093041;28;20648;-83
2021/01/04 12:08:25;;;;;;;5.50;5.10;;;;;;;;;;5091868;28;20306;-83
2021/01/04 12:10:58;;;;;;;6.73;5.20;;;;;;;;;;5091846;28;20171;-82
2021/01/04 12:13:31;;;;;;;5.00;4.50;;;;;;;;;;5093070;28;20179;-82
2021/01/04 12:16:02;;;;;;;4.67;4.33;;;;;;;;;;5095283;28;20175;-82
2021/01/04 12:18:31;;;;;;;4.10;3.90;;;;;;;;;;5096722;28;20702;-82
2021/01/04 12:21:05;;;;;;;7.17;4.07;;;;;;;;;;5096833;28;20200;-82
2021/01/04 12:23:40;;;;;;;4.60;4.30;;;;;;;;;;5096922;28;20527;-82
2021/01/04 12:26:11;;;;;;;3.67;3.40;;;;;;;;;;5095406;28;20674;-82
2021/01/04 12:28:44;;;;;;;4.17;3.87;;;;;;;;;;5096943;28;20600;-82
2021/01/04 12:31:21;;;;;;;4.30;4.07;;;;;;;;;;5095268;28;20260;-82
2021/01/04 12:33:55;;;;;;;4.90;4.53;;;;;;;;;;5096491;28;20181;-82
2021/01/04 12:36:29;;;;;;;5.57;4.40;;;;;;;;;;5096670;28;20211;-82
2021/01/04 12:39:01;;;;;;;4.60;4.30;;;;;;;;;;5095101;28;20290;-83
2021/01/04 12:41:39;;;;;;;4.87;4.57;;;;;;;;;;5094925;28;20200;-83
2021/01/04 12:44:14;;;;;;;4.67;4.37;;;;;;;;;;5096266;28;20553;-82
2021/01/04 12:46:49;;;;;;;4.17;3.77;;;;;;;;;;5094876;28;20174;-82
2021/01/04 12:49:20;;;;;;;4.50;4.10;;;;;;;;;;5095042;28;20166;-82
2021/01/04 12:51:55;;;;;;;6.33;4.60;;;;;;;;;;5095951;28;20174;-82
2021/01/04 12:54:24;;;;;;;3.90;3.60;;;;;;;;;;5096597;28;20158;-82
2021/01/04 12:57:03;;;;;;;4.07;3.83;;;;;;;;;;5096502;28;20173;-82
2021/01/04 12:59:38;;;;;;;4.87;4.43;;;;;;;;;;5095874;28;20183;-82
2021/01/04 13:02:11;;;;;;;3.80;3.60;;;;;;;;;;5096355;28;20183;-82
2021/01/04 13:04:42;;;;;;;3.77;3.53;;;;;;;;;;5096302;28;20257;-82
2021/01/04 13:07:09;;;;;;;5.40;4.20;;;;;;;;;;5095484;28;20202;-82
2021/01/04 13:09:41;;;;;;;5.50;3.20;;;;;;;;;;5096412;28;20172;-83
2021/01/04 13:12:07;;;;;;;3.37;2.23;;;;;;;;;;5095058;28;20161;-82
2021/01/04 13:14:40;;;;;;;2.60;2.40;;;;;;;;;;5094892;28;20173;-82
2021/01/04 13:17:11;;;;;;;2.03;1.93;;;;;;;;;;5096718;28;20198;-82
2021/01/04 13:19:38;;;;;;;2.13;2.00;;;;;;;;;;5094432;28;20299;-82
2021/01/04 13:22:09;;;;;;;3.40;2.40;;;;;;;;;;5094641;28;20183;-82
2021/01/04 13:24:35;;;;;;;2.97;2.20;;;;;;;;;;5095930;28;20175;-82
2021/01/04 13:27:01;;;;;;;6.20;2.60;;;;;;;;;;5095353;28;20198;-82
2021/01/04 13:29:33;;;;;;;1.97;1.87;;;;;;;;;;5094677;28;20645;-82
2021/01/04 13:32:02;;;;;;;2.23;2.13;;;;;;;;;;5096470;28;20168;-82
2021/01/04 13:34:29;;;;;;;2.97;2.00;;;;;;;;;;5096762;28;20222;-81
2021/01/04 13:36:56;;;;;;;2.30;2.10;;;;;;;;;;5094990;28;20195;-82
2021/01/04 13:39:27;;;;;;;2.70;2.07;;;;;;;;;;5077751;28;20233;-82
2021/01/04 13:41:59;;;;;;;1.70;1.60;;;;;;;;;;5095247;28;20173;-82
2021/01/04 13:44:29;;;;;;;1.97;1.87;;;;;;;;;;5094125;28;20637;-83
2021/01/04 13:47:04;;;;;;;1.83;1.70;;;;;;;;;;5095281;28;20224;-82
2021/01/04 13:49:32;;;;;;;3.63;2.00;;;;;;;;;;5095213;28;20175;-82
2021/01/04 13:51:58;;;;;;;2.13;1.93;;;;;;;;;;5094297;28;20184;-82
2021/01/04 13:54:25;;;;;;;4.53;2.63;;;;;;;;;;5094287;28;20261;-82
2021/01/04 13:56:56;;;;;;;3.67;2.30;;;;;;;;;;5094254;28;20169;-82
2021/01/04 13:59:27;;;;;;;6.00;2.53;;;;;;;;;;5094240;28;20175;-82
2021/01/04 14:01:58;;;;;;;2.27;2.10;;;;;;;;;;5095436;28;20702;-82
2021/01/04 14:04:28;;;;;;;2.30;2.10;;;;;;;;;;5094345;28;20652;-82
2021/01/04 14:06:58;;;;;;;4.93;2.80;;;;;;;;;;5095064;28;20568;-82
2021/01/04 14:09:28;;;;;;;2.57;2.37;;;;;;;;;;5095224;28;20189;-82
2021/01/04 14:11:55;;;;;;;3.00;2.80;;;;;;;;;;5096260;28;20181;-82
2021/01/04 14:14:26;;;;;;;2.47;2.27;;;;;;;;;;5094339;28;20700;-82
2021/01/04 14:17:01;;;;;;;4.33;2.60;;;;;;;;;;5094880;28;20178;-82
2021/01/04 14:19:31;;;;;;;3.63;2.20;;;;;;;;;;5093380;28;20176;-83
2021/01/04 14:22:03;;;;;;;2.53;2.33;;;;;;;;;;5094513;28;20176;-82
2021/01/04 14:24:35;;;;;;;2.50;2.30;;;;;;;;;;5094831;28;20168;-82
2021/01/04 14:27:09;;;;;;;3.13;2.10;;;;;;;;;;5093198;28;20198;-82
2021/01/04 14:29:40;;;;;;;3.20;2.60;;;;;;;;;;5093247;28;20180;-82
2021/01/04 14:32:10;;;;;;;4.43;3.00;;;;;;;;;;5094753;28;20600;-82
2021/01/04 14:34:42;;;;;;;2.60;2.40;;;;;;;;;;5094394;28;20180;-82
2021/01/04 14:37:13;;;;;;;2.37;2.27;;;;;;;;;;5092694;28;20192;-81
2021/01/04 14:39:44;;;;;;;2.77;2.57;;;;;;;;;;5092583;28;20174;-82
2021/01/04 14:42:18;;;;;;;2.57;2.40;;;;;;;;;;5094237;28;20187;-82
2021/01/04 14:44:51;;;;;;;2.93;2.63;;;;;;;;;;5093544;28;20207;-82
2021/01/04 14:47:21;;;;;;;3.47;3.10;;;;;;;;;;5093172;28;20190;-82
2021/01/04 14:49:51;;;;;;;2.53;2.33;;;;;;;;;;5093017;28;20179;-82
2021/01/04 14:52:20;;;;;;;3.33;3.03;;;;;;;;;;5094138;28;20185;-82
2021/01/04 14:54:53;;;;;;;5.33;2.70;;;;;;;;;;5094662;28;20226;-82
2021/01/04 14:57:23;;;;;;;2.70;2.50;;;;;;;;;;5094722;28;20687;-82
2021/01/04 14:59:49;;;;;;;2.87;2.67;;;;;;;;;;5094479;28;20666;-82
2021/01/04 15:02:16;;;;;;;2.70;2.50;;;;;;;;;;5093340;28;20694;-82
2021/01/04 15:04:47;;;;;;;2.37;2.27;;;;;;;;;;5094279;28;20179;-82
2021/01/04 15:07:16;;;;;;;9.53;2.97;;;;;;;;;;5094417;28;20209;-82
2021/01/04 15:09:46;;;;;;;3.00;2.70;;;;;;;;;;5092900;28;20173;-82
2021/01/04 15:12:13;;;;;;;2.70;2.50;;;;;;;;;;5094459;28;20205;-81
2021/01/04 15:14:39;;;;;;;3.73;2.70;;;;;;;;;;5094704;28;20219;-82
2021/01/04 15:17:07;;;;;;;3.43;2.40;;;;;;;;;;5093045;28;20198;-82
2021/01/04 15:19:35;;;;;;;3.10;2.90;;;;;;;;;;5092463;28;20184;-82
2021/01/04 15:22:09;;;;;;;3.07;2.87;;;;;;;;;;5092804;28;20171;-82
2021/01/04 15:24:35;;;;;;;2.87;2.67;;;;;;;;;;5094745;28;20212;-82
2021/01/04 15:27:05;;;;;;;3.60;2.80;;;;;;;;;;5093174;28;20247;-82
2021/01/04 15:29:34;;;;;;;2.30;2.20;;;;;;;;;;5094120;28;20175;-82
2021/01/04 15:32:05;;;;;;;5.03;2.53;;;;;;;;;;5092964;28;20610;-82
2021/01/04 15:34:33;;;;;;;4.63;2.87;;;;;;;;;;5092922;28;20651;-82